Shoreacres, Texas
Current Conditions -  °F | °C
As of 4:50 PM on Sunday 23 Nov 2014 (Local Time) from KEFD Reporting Station
Clear Clear  
Wind Chill: 77°   Ceiling: Unl
Heat Index: 78°   Visibility: 10mi
Dew Point: 52°   Wind: 12mph
Humidity: 41%   Direction: 210°SSW
Pressure: 29.57"   Gusts: NA
Location:  29.6785°N, 95.0483°W
Report Text: KEFD 232250Z 21010KT 10SM CLR 25/11 A2957
Loading
Personal Weather Stations






























Interactive Weather Map New forecast layout! Learn more

10-Day Weather Forecast

Advertisements
Track Severe Weather on mobile